KEKN Airport (Elkins-Randolph Co-Jennings Randolph Fld) Information

FAA: EKN - ICAO: KEKN

KEKN Airport Location

State West Virginia
County Randolph
City Elkins
KEKN Airport is 2 miles south of Elkins, WV.
Latitude 38-53-22.0000N
Longitude 079-51-25.7000W
Elevation 1,987ft

KEKN Airport METARs

METAR KEKN 182151Z AUTO 28010G15KT 10SM CLR 16/01 A3009 RMK AO2 SLP197 T01560006
Altimeter 30.09"
Temperature 15.6°C (60.1°F)
Wind 280° at 10KT with gusts to 15KT
Clouds Skies are clear.
Visibility 10.0mi
Time observed: 2021-10-18T21:51:00Z

KEKN Airport Details

Status Operational
Activation June 1938
Ownership Public
Usage Public
Chart CINCINNATI
ATC on-site No
Beacon schedule sunset-sunrise
Beacon color clear green

KEKN Airport Contacts

Owner ELKINS-RANDOLPH CO RGNL ARPT AUTH
Owner address 400 AIRPORT RD, ELKINS, WV 26241
Owner phone 304-636-2726
Manager ERIC HICKS
Manager address P O BOX 2427, CHARLESTON, WV 25329
Manager phone 304-949-6400

KEKN Airport (Elkins-Randolph Co-Jennings Randolph Fld) Radio Frequencies

KEKN (Airport) Radio Frequencies

UNICOM N/A
Common traffic advisory frequency (CTAF) 123.6